sensor_id;sensor_type;location;lat;lon;timestamp;P1;durP1;ratioP1;P2;durP2;ratioP2
42094;SDS011;27753;55.724;37.612;2022-07-17T00:00:37;5.65;;;2.50;;
42094;SDS011;27753;55.724;37.612;2022-07-17T00:03:07;5.07;;;2.80;;
42094;SDS011;27753;55.724;37.612;2022-07-17T00:05:37;4.47;;;2.58;;
42094;SDS011;27753;55.724;37.612;2022-07-17T00:08:04;4.78;;;2.30;;
42094;SDS011;27753;55.724;37.612;2022-07-17T00:10:31;3.95;;;1.92;;
42094;SDS011;27753;55.724;37.612;2022-07-17T00:12:58;6.25;;;2.05;;
42094;SDS011;27753;55.724;37.612;2022-07-17T00:15:24;4.13;;;2.05;;
42094;SDS011;27753;55.724;37.612;2022-07-17T00:17:49;5.22;;;2.05;;
42094;SDS011;27753;55.724;37.612;2022-07-17T00:20:16;5.65;;;2.03;;
42094;SDS011;27753;55.724;37.612;2022-07-17T00:22:41;5.22;;;1.92;;
42094;SDS011;27753;55.724;37.612;2022-07-17T00:25:08;4.65;;;2.10;;
42094;SDS011;27753;55.724;37.612;2022-07-17T00:27:35;12.48;;;2.47;;
42094;SDS011;27753;55.724;37.612;2022-07-17T00:30:02;4.63;;;1.98;;
42094;SDS011;27753;55.724;37.612;2022-07-17T00:32:29;4.88;;;2.30;;
42094;SDS011;27753;55.724;37.612;2022-07-17T00:34:55;8.77;;;2.83;;
42094;SDS011;27753;55.724;37.612;2022-07-17T00:37:21;5.07;;;2.40;;
42094;SDS011;27753;55.724;37.612;2022-07-17T00:39:47;6.75;;;2.97;;
42094;SDS011;27753;55.724;37.612;2022-07-17T00:42:13;2.70;;;1.95;;
42094;SDS011;27753;55.724;37.612;2022-07-17T00:44:41;4.25;;;2.63;;
42094;SDS011;27753;55.724;37.612;2022-07-17T00:49:36;6.15;;;2.42;;
42094;SDS011;27753;55.724;37.612;2022-07-17T00:52:02;5.28;;;2.30;;
42094;SDS011;27753;55.724;37.612;2022-07-17T00:54:28;5.78;;;2.50;;
42094;SDS011;27753;55.724;37.612;2022-07-17T00:56:55;5.50;;;2.60;;
42094;SDS011;27753;55.724;37.612;2022-07-17T00:59:23;5.38;;;2.60;;
42094;SDS011;27753;55.724;37.612;2022-07-17T01:01:49;6.13;;;2.30;;
42094;SDS011;27753;55.724;37.612;2022-07-17T01:04:15;5.75;;;2.42;;
42094;SDS011;27753;55.724;37.612;2022-07-17T01:06:41;5.32;;;2.75;;
42094;SDS011;27753;55.724;37.612;2022-07-17T01:09:10;5.07;;;2.50;;
42094;SDS011;27753;55.724;37.612;2022-07-17T01:11:36;4.88;;;2.25;;
42094;SDS011;27753;55.724;37.612;2022-07-17T01:14:02;9.10;;;2.42;;
42094;SDS011;27753;55.724;37.612;2022-07-17T01:16:28;6.57;;;3.00;;
42094;SDS011;27753;55.724;37.612;2022-07-17T01:18:54;6.33;;;3.07;;
42094;SDS011;27753;55.724;37.612;2022-07-17T01:21:21;4.18;;;2.60;;
42094;SDS011;27753;55.724;37.612;2022-07-17T01:23:47;6.38;;;2.60;;
42094;SDS011;27753;55.724;37.612;2022-07-17T01:26:13;5.20;;;2.40;;
42094;SDS011;27753;55.724;37.612;2022-07-17T01:28:39;6.70;;;3.15;;
42094;SDS011;27753;55.724;37.612;2022-07-17T01:31:05;5.55;;;2.42;;
42094;SDS011;27753;55.724;37.612;2022-07-17T01:33:30;6.80;;;2.88;;
42094;SDS011;27753;55.724;37.612;2022-07-17T01:35:56;4.85;;;2.60;;
42094;SDS011;27753;55.724;37.612;2022-07-17T01:38:22;5.63;;;2.83;;
42094;SDS011;27753;55.724;37.612;2022-07-17T01:40:48;6.07;;;3.13;;
42094;SDS011;27753;55.724;37.612;2022-07-17T01:43:14;8.27;;;2.80;;
42094;SDS011;27753;55.724;37.612;2022-07-17T01:45:40;6.55;;;3.42;;
42094;SDS011;27753;55.724;37.612;2022-07-17T01:48:06;5.32;;;3.05;;
42094;SDS011;27753;55.724;37.612;2022-07-17T01:50:32;6.55;;;3.35;;
42094;SDS011;27753;55.724;37.612;2022-07-17T01:52:58;6.60;;;2.92;;
42094;SDS011;27753;55.724;37.612;2022-07-17T01:55:23;9.80;;;2.60;;
42094;SDS011;27753;55.724;37.612;2022-07-17T01:57:49;5.82;;;3.20;;
42094;SDS011;27753;55.724;37.612;2022-07-17T02:00:16;7.72;;;2.53;;
42094;SDS011;27753;55.724;37.612;2022-07-17T02:02:43;4.95;;;2.80;;
42094;SDS011;27753;55.724;37.612;2022-07-17T02:05:09;12.95;;;3.10;;
42094;SDS011;27753;55.724;37.612;2022-07-17T02:07:35;4.50;;;2.60;;
42094;SDS011;27753;55.724;37.612;2022-07-17T02:10:04;7.75;;;2.50;;
42094;SDS011;27753;55.724;37.612;2022-07-17T02:12:31;5.38;;;3.17;;
42094;SDS011;27753;55.724;37.612;2022-07-17T02:14:57;7.43;;;3.55;;
42094;SDS011;27753;55.724;37.612;2022-07-17T02:17:23;7.40;;;2.95;;
42094;SDS011;27753;55.724;37.612;2022-07-17T02:19:49;5.45;;;3.03;;
42094;SDS011;27753;55.724;37.612;2022-07-17T02:22:14;5.70;;;2.85;;
42094;SDS011;27753;55.724;37.612;2022-07-17T02:24:40;4.72;;;3.03;;
42094;SDS011;27753;55.724;37.612;2022-07-17T02:27:06;7.88;;;2.75;;
42094;SDS011;27753;55.724;37.612;2022-07-17T02:29:32;8.68;;;4.18;;
42094;SDS011;27753;55.724;37.612;2022-07-17T02:31:58;10.05;;;4.30;;
42094;SDS011;27753;55.724;37.612;2022-07-17T02:34:23;11.60;;;3.50;;
42094;SDS011;27753;55.724;37.612;2022-07-17T02:36:49;7.00;;;3.90;;
42094;SDS011;27753;55.724;37.612;2022-07-17T02:39:15;7.97;;;2.92;;
42094;SDS011;27753;55.724;37.612;2022-07-17T02:41:41;12.10;;;3.55;;
42094;SDS011;27753;55.724;37.612;2022-07-17T02:44:07;9.25;;;4.13;;
42094;SDS011;27753;55.724;37.612;2022-07-17T02:46:32;12.05;;;3.95;;
42094;SDS011;27753;55.724;37.612;2022-07-17T02:48:58;12.95;;;4.53;;
42094;SDS011;27753;55.724;37.612;2022-07-17T02:51:24;9.32;;;4.60;;
42094;SDS011;27753;55.724;37.612;2022-07-17T02:53:50;12.07;;;4.40;;
42094;SDS011;27753;55.724;37.612;2022-07-17T02:56:16;10.55;;;4.00;;
42094;SDS011;27753;55.724;37.612;2022-07-17T02:58:42;12.82;;;4.75;;
42094;SDS011;27753;55.724;37.612;2022-07-17T03:01:08;8.02;;;4.45;;
42094;SDS011;27753;55.724;37.612;2022-07-17T03:03:34;14.57;;;4.53;;
42094;SDS011;27753;55.724;37.612;2022-07-17T03:05:59;7.72;;;4.63;;
42094;SDS011;27753;55.724;37.612;2022-07-17T03:08:25;15.00;;;9.13;;
42094;SDS011;27753;55.724;37.612;2022-07-17T03:10:51;20.50;;;7.28;;
42094;SDS011;27753;55.724;37.612;2022-07-17T03:13:17;11.00;;;4.20;;
42094;SDS011;27753;55.724;37.612;2022-07-17T03:15:43;10.65;;;5.25;;
42094;SDS011;27753;55.724;37.612;2022-07-17T03:18:09;9.45;;;4.93;;
42094;SDS011;27753;55.724;37.612;2022-07-17T03:20:35;13.35;;;4.53;;
42094;SDS011;27753;55.724;37.612;2022-07-17T03:23:01;11.60;;;5.45;;
42094;SDS011;27753;55.724;37.612;2022-07-17T03:25:27;8.82;;;4.93;;
42094;SDS011;27753;55.724;37.612;2022-07-17T03:27:53;10.55;;;4.95;;
42094;SDS011;27753;55.724;37.612;2022-07-17T03:30:18;12.48;;;4.63;;
42094;SDS011;27753;55.724;37.612;2022-07-17T03:32:44;12.27;;;4.97;;
42094;SDS011;27753;55.724;37.612;2022-07-17T03:35:10;9.15;;;4.70;;
42094;SDS011;27753;55.724;37.612;2022-07-17T03:37:36;10.07;;;4.68;;
42094;SDS011;27753;55.724;37.612;2022-07-17T03:40:03;10.70;;;5.57;;
42094;SDS011;27753;55.724;37.612;2022-07-17T03:42:31;7.82;;;4.53;;
42094;SDS011;27753;55.724;37.612;2022-07-17T03:44:56;11.05;;;4.63;;
42094;SDS011;27753;55.724;37.612;2022-07-17T03:47:22;10.25;;;4.72;;
42094;SDS011;27753;55.724;37.612;2022-07-17T03:49:48;9.60;;;4.15;;
42094;SDS011;27753;55.724;37.612;2022-07-17T03:52:14;12.75;;;4.72;;
42094;SDS011;27753;55.724;37.612;2022-07-17T03:54:39;9.57;;;4.32;;
42094;SDS011;27753;55.724;37.612;2022-07-17T03:57:05;7.40;;;4.00;;
42094;SDS011;27753;55.724;37.612;2022-07-17T03:59:31;8.27;;;4.32;;
42094;SDS011;27753;55.724;37.612;2022-07-17T04:01:57;6.93;;;4.07;;
42094;SDS011;27753;55.724;37.612;2022-07-17T04:04:23;8.70;;;4.40;;
42094;SDS011;27753;55.724;37.612;2022-07-17T04:06:48;8.88;;;4.40;;
42094;SDS011;27753;55.724;37.612;2022-07-17T04:09:14;14.60;;;5.45;;
42094;SDS011;27753;55.724;37.612;2022-07-17T04:11:40;12.93;;;4.82;;
42094;SDS011;27753;55.724;37.612;2022-07-17T04:14:06;8.52;;;4.30;;
42094;SDS011;27753;55.724;37.612;2022-07-17T04:16:31;7.13;;;4.68;;
42094;SDS011;27753;55.724;37.612;2022-07-17T04:18:57;9.73;;;4.65;;
42094;SDS011;27753;55.724;37.612;2022-07-17T04:21:23;10.40;;;5.00;;
42094;SDS011;27753;55.724;37.612;2022-07-17T04:23:49;5.85;;;4.40;;
42094;SDS011;27753;55.724;37.612;2022-07-17T04:26:15;6.57;;;3.78;;
42094;SDS011;27753;55.724;37.612;2022-07-17T04:28:41;5.63;;;3.97;;
42094;SDS011;27753;55.724;37.612;2022-07-17T04:31:07;7.07;;;4.57;;
42094;SDS011;27753;55.724;37.612;2022-07-17T04:33:33;5.78;;;3.90;;
42094;SDS011;27753;55.724;37.612;2022-07-17T04:35:59;5.05;;;3.72;;
42094;SDS011;27753;55.724;37.612;2022-07-17T04:38:24;4.28;;;3.67;;
42094;SDS011;27753;55.724;37.612;2022-07-17T04:40:50;6.63;;;3.85;;
42094;SDS011;27753;55.724;37.612;2022-07-17T04:43:16;7.32;;;3.90;;
42094;SDS011;27753;55.724;37.612;2022-07-17T04:45:42;5.03;;;2.70;;
42094;SDS011;27753;55.724;37.612;2022-07-17T04:48:08;7.68;;;3.10;;
42094;SDS011;27753;55.724;37.612;2022-07-17T04:50:33;6.05;;;3.22;;
42094;SDS011;27753;55.724;37.612;2022-07-17T04:52:59;5.50;;;2.40;;
42094;SDS011;27753;55.724;37.612;2022-07-17T04:55:26;7.35;;;3.08;;
42094;SDS011;27753;55.724;37.612;2022-07-17T04:57:52;3.97;;;2.97;;
42094;SDS011;27753;55.724;37.612;2022-07-17T05:00:19;3.70;;;2.35;;
42094;SDS011;27753;55.724;37.612;2022-07-17T05:02:45;3.80;;;2.37;;
42094;SDS011;27753;55.724;37.612;2022-07-17T05:05:11;4.57;;;2.25;;
42094;SDS011;27753;55.724;37.612;2022-07-17T05:07:37;6.78;;;2.45;;
42094;SDS011;27753;55.724;37.612;2022-07-17T05:10:03;5.10;;;2.50;;
42094;SDS011;27753;55.724;37.612;2022-07-17T05:12:30;4.15;;;2.00;;
42094;SDS011;27753;55.724;37.612;2022-07-17T05:14:56;3.03;;;2.13;;
42094;SDS011;27753;55.724;37.612;2022-07-17T05:17:21;2.60;;;2.03;;
42094;SDS011;27753;55.724;37.612;2022-07-17T05:19:47;5.78;;;2.13;;
42094;SDS011;27753;55.724;37.612;2022-07-17T05:22:14;2.92;;;1.92;;
42094;SDS011;27753;55.724;37.612;2022-07-17T05:24:40;6.13;;;2.00;;
42094;SDS011;27753;55.724;37.612;2022-07-17T05:27:06;3.38;;;1.80;;
42094;SDS011;27753;55.724;37.612;2022-07-17T05:29:31;2.58;;;1.70;;
42094;SDS011;27753;55.724;37.612;2022-07-17T05:31:57;1.92;;;1.50;;
42094;SDS011;27753;55.724;37.612;2022-07-17T05:34:23;6.00;;;1.83;;
42094;SDS011;27753;55.724;37.612;2022-07-17T05:36:49;4.05;;;1.63;;
42094;SDS011;27753;55.724;37.612;2022-07-17T05:39:15;2.83;;;1.92;;
42094;SDS011;27753;55.724;37.612;2022-07-17T05:41:41;2.33;;;1.70;;
42094;SDS011;27753;55.724;37.612;2022-07-17T05:44:06;1.63;;;1.30;;
42094;SDS011;27753;55.724;37.612;2022-07-17T05:46:33;1.90;;;1.52;;
42094;SDS011;27753;55.724;37.612;2022-07-17T05:48:59;3.00;;;1.77;;
42094;SDS011;27753;55.724;37.612;2022-07-17T05:51:24;2.58;;;1.35;;
42094;SDS011;27753;55.724;37.612;2022-07-17T05:53:50;3.40;;;1.27;;
42094;SDS011;27753;55.724;37.612;2022-07-17T05:56:16;3.83;;;1.83;;
42094;SDS011;27753;55.724;37.612;2022-07-17T05:58:42;3.53;;;1.63;;
42094;SDS011;27753;55.724;37.612;2022-07-17T06:01:08;2.83;;;1.40;;
42094;SDS011;27753;55.724;37.612;2022-07-17T06:03:34;3.40;;;1.40;;
42094;SDS011;27753;55.724;37.612;2022-07-17T06:06:00;2.28;;;1.38;;
42094;SDS011;27753;55.724;37.612;2022-07-17T06:08:25;3.88;;;1.63;;
42094;SDS011;27753;55.724;37.612;2022-07-17T06:10:51;7.03;;;1.52;;
42094;SDS011;27753;55.724;37.612;2022-07-17T06:13:17;3.55;;;1.35;;
42094;SDS011;27753;55.724;37.612;2022-07-17T06:15:43;3.33;;;1.00;;
42094;SDS011;27753;55.724;37.612;2022-07-17T06:18:09;4.73;;;1.23;;
42094;SDS011;27753;55.724;37.612;2022-07-17T06:20:34;4.22;;;1.30;;
42094;SDS011;27753;55.724;37.612;2022-07-17T06:23:00;4.37;;;1.13;;
42094;SDS011;27753;55.724;37.612;2022-07-17T06:25:26;7.87;;;1.47;;
42094;SDS011;27753;55.724;37.612;2022-07-17T06:27:52;3.63;;;1.47;;
42094;SDS011;27753;55.724;37.612;2022-07-17T06:30:18;3.07;;;1.10;;
42094;SDS011;27753;55.724;37.612;2022-07-17T06:32:43;2.13;;;0.90;;
42094;SDS011;27753;55.724;37.612;2022-07-17T06:35:09;3.00;;;0.80;;
42094;SDS011;27753;55.724;37.612;2022-07-17T06:37:35;1.85;;;0.80;;
42094;SDS011;27753;55.724;37.612;2022-07-17T06:40:02;3.40;;;1.30;;
42094;SDS011;27753;55.724;37.612;2022-07-17T06:42:28;3.67;;;1.00;;
42094;SDS011;27753;55.724;37.612;2022-07-17T06:44:54;2.10;;;0.90;;
42094;SDS011;27753;55.724;37.612;2022-07-17T06:47:20;2.35;;;1.10;;
42094;SDS011;27753;55.724;37.612;2022-07-17T06:49:45;1.95;;;1.35;;
42094;SDS011;27753;55.724;37.612;2022-07-17T06:52:11;3.55;;;1.15;;
42094;SDS011;27753;55.724;37.612;2022-07-17T06:54:37;7.13;;;1.40;;
42094;SDS011;27753;55.724;37.612;2022-07-17T06:57:03;4.13;;;1.13;;
42094;SDS011;27753;55.724;37.612;2022-07-17T06:59:29;1.58;;;0.73;;
42094;SDS011;27753;55.724;37.612;2022-07-17T07:01:55;2.10;;;0.90;;
42094;SDS011;27753;55.724;37.612;2022-07-17T07:04:20;1.20;;;0.85;;
42094;SDS011;27753;55.724;37.612;2022-07-17T07:06:46;1.17;;;0.90;;
42094;SDS011;27753;55.724;37.612;2022-07-17T07:09:12;4.20;;;0.98;;
42094;SDS011;27753;55.724;37.612;2022-07-17T07:11:38;3.22;;;1.08;;
42094;SDS011;27753;55.724;37.612;2022-07-17T07:16:31;4.50;;;1.15;;
42094;SDS011;27753;55.724;37.612;2022-07-17T07:18:57;1.60;;;0.80;;
42094;SDS011;27753;55.724;37.612;2022-07-17T07:21:23;2.25;;;1.05;;
42094;SDS011;27753;55.724;37.612;2022-07-17T07:23:51;2.38;;;1.13;;
42094;SDS011;27753;55.724;37.612;2022-07-17T07:26:17;5.60;;;2.85;;
42094;SDS011;27753;55.724;37.612;2022-07-17T07:28:43;3.28;;;1.60;;
42094;SDS011;27753;55.724;37.612;2022-07-17T07:31:09;4.28;;;1.20;;
42094;SDS011;27753;55.724;37.612;2022-07-17T07:36:01;1.58;;;0.63;;
42094;SDS011;27753;55.724;37.612;2022-07-17T07:38:27;2.90;;;0.68;;
42094;SDS011;27753;55.724;37.612;2022-07-17T07:40:53;1.13;;;0.75;;
42094;SDS011;27753;55.724;37.612;2022-07-17T07:43:19;2.83;;;0.95;;
42094;SDS011;27753;55.724;37.612;2022-07-17T07:45:45;5.15;;;0.80;;
42094;SDS011;27753;55.724;37.612;2022-07-17T07:48:10;3.95;;;0.98;;
42094;SDS011;27753;55.724;37.612;2022-07-17T07:50:37;4.78;;;1.00;;
42094;SDS011;27753;55.724;37.612;2022-07-17T07:53:03;2.10;;;0.80;;
42094;SDS011;27753;55.724;37.612;2022-07-17T07:55:29;3.17;;;0.95;;
42094;SDS011;27753;55.724;37.612;2022-07-17T07:58:28;3.03;;;1.00;;
42094;SDS011;27753;55.724;37.612;2022-07-17T08:00:47;3.65;;;0.60;;
42094;SDS011;27753;55.724;37.612;2022-07-17T08:03:13;6.15;;;1.75;;
42094;SDS011;27753;55.724;37.612;2022-07-17T08:05:39;2.38;;;1.38;;
42094;SDS011;27753;55.724;37.612;2022-07-17T08:08:05;2.53;;;1.05;;
42094;SDS011;27753;55.724;37.612;2022-07-17T08:10:31;4.25;;;1.35;;
42094;SDS011;27753;55.724;37.612;2022-07-17T08:12:58;1.60;;;1.00;;
42094;SDS011;27753;55.724;37.612;2022-07-17T08:15:24;3.08;;;1.42;;
42094;SDS011;27753;55.724;37.612;2022-07-17T08:17:50;4.47;;;1.15;;
42094;SDS011;27753;55.724;37.612;2022-07-17T08:20:18;2.45;;;0.98;;
42094;SDS011;27753;55.724;37.612;2022-07-17T08:22:44;1.42;;;0.90;;
42094;SDS011;27753;55.724;37.612;2022-07-17T08:25:11;4.10;;;1.23;;
42094;SDS011;27753;55.724;37.612;2022-07-17T08:30:07;2.97;;;1.00;;
42094;SDS011;27753;55.724;37.612;2022-07-17T08:32:34;3.42;;;1.30;;
42094;SDS011;27753;55.724;37.612;2022-07-17T08:35:00;2.45;;;0.85;;
42094;SDS011;27753;55.724;37.612;2022-07-17T08:39:52;15.63;;;3.30;;
42094;SDS011;27753;55.724;37.612;2022-07-17T08:42:18;3.22;;;1.85;;
42094;SDS011;27753;55.724;37.612;2022-07-17T08:44:44;5.30;;;1.58;;
42094;SDS011;27753;55.724;37.612;2022-07-17T08:47:13;3.50;;;1.77;;
42094;SDS011;27753;55.724;37.612;2022-07-17T08:49:44;3.50;;;1.95;;
42094;SDS011;27753;55.724;37.612;2022-07-17T08:52:11;13.10;;;2.30;;
42094;SDS011;27753;55.724;37.612;2022-07-17T08:54:38;3.15;;;2.00;;
42094;SDS011;27753;55.724;37.612;2022-07-17T08:57:04;4.03;;;1.55;;
42094;SDS011;27753;55.724;37.612;2022-07-17T08:59:30;3.47;;;1.83;;
42094;SDS011;27753;55.724;37.612;2022-07-17T09:01:58;2.33;;;1.27;;
42094;SDS011;27753;55.724;37.612;2022-07-17T09:04:24;1.90;;;1.23;;
42094;SDS011;27753;55.724;37.612;2022-07-17T09:07:00;2.65;;;1.38;;
42094;SDS011;27753;55.724;37.612;2022-07-17T09:09:27;5.32;;;1.60;;
42094;SDS011;27753;55.724;37.612;2022-07-17T09:11:53;4.45;;;1.63;;
42094;SDS011;27753;55.724;37.612;2022-07-17T09:14:20;4.32;;;1.40;;
42094;SDS011;27753;55.724;37.612;2022-07-17T09:16:53;4.65;;;1.48;;
42094;SDS011;27753;55.724;37.612;2022-07-17T09:19:31;3.78;;;1.70;;
42094;SDS011;27753;55.724;37.612;2022-07-17T09:24:54;2.30;;;1.33;;
42094;SDS011;27753;55.724;37.612;2022-07-17T09:30:05;4.00;;;1.70;;
42094;SDS011;27753;55.724;37.612;2022-07-17T09:32:35;3.38;;;1.50;;
42094;SDS011;27753;55.724;37.612;2022-07-17T09:35:03;4.80;;;1.42;;
42094;SDS011;27753;55.724;37.612;2022-07-17T09:37:31;3.45;;;1.70;;
42094;SDS011;27753;55.724;37.612;2022-07-17T09:39:58;4.65;;;2.63;;
42094;SDS011;27753;55.724;37.612;2022-07-17T09:42:33;2.17;;;1.15;;
42094;SDS011;27753;55.724;37.612;2022-07-17T09:45:00;2.38;;;1.60;;
42094;SDS011;27753;55.724;37.612;2022-07-17T09:49:53;3.40;;;1.42;;
42094;SDS011;27753;55.724;37.612;2022-07-17T09:52:22;5.13;;;1.73;;
42094;SDS011;27753;55.724;37.612;2022-07-17T09:54:51;5.38;;;1.65;;
42094;SDS011;27753;55.724;37.612;2022-07-17T09:57:19;6.22;;;2.05;;
42094;SDS011;27753;55.724;37.612;2022-07-17T09:59:49;6.07;;;2.20;;
42094;SDS011;27753;55.724;37.612;2022-07-17T10:02:17;4.30;;;1.48;;
42094;SDS011;27753;55.724;37.612;2022-07-17T10:04:45;6.20;;;2.92;;
42094;SDS011;27753;55.724;37.612;2022-07-17T10:07:12;5.13;;;2.30;;
42094;SDS011;27753;55.724;37.612;2022-07-17T10:09:38;8.18;;;3.40;;
42094;SDS011;27753;55.724;37.612;2022-07-17T10:12:05;2.15;;;1.48;;
42094;SDS011;27753;55.724;37.612;2022-07-17T10:14:32;4.18;;;1.90;;
42094;SDS011;27753;55.724;37.612;2022-07-17T10:17:08;5.40;;;1.50;;
42094;SDS011;27753;55.724;37.612;2022-07-17T10:19:44;3.70;;;1.42;;
42094;SDS011;27753;55.724;37.612;2022-07-17T10:22:14;1.88;;;1.50;;
42094;SDS011;27753;55.724;37.612;2022-07-17T10:24:47;3.10;;;1.27;;
42094;SDS011;27753;55.724;37.612;2022-07-17T10:27:29;6.80;;;2.63;;
42094;SDS011;27753;55.724;37.612;2022-07-17T10:30:00;4.88;;;1.38;;
42094;SDS011;27753;55.724;37.612;2022-07-17T10:32:31;4.80;;;1.10;;
42094;SDS011;27753;55.724;37.612;2022-07-17T10:35:04;4.28;;;1.42;;
42094;SDS011;27753;55.724;37.612;2022-07-17T10:40:02;1.50;;;1.13;;
42094;SDS011;27753;55.724;37.612;2022-07-17T10:42:42;2.40;;;1.40;;
42094;SDS011;27753;55.724;37.612;2022-07-17T10:45:21;2.03;;;1.30;;
42094;SDS011;27753;55.724;37.612;2022-07-17T10:48:06;2.47;;;1.60;;
42094;SDS011;27753;55.724;37.612;2022-07-17T10:50:43;4.45;;;1.85;;
42094;SDS011;27753;55.724;37.612;2022-07-17T10:55:58;2.33;;;1.17;;
42094;SDS011;27753;55.724;37.612;2022-07-17T10:58:32;5.32;;;2.08;;
42094;SDS011;27753;55.724;37.612;2022-07-17T11:01:00;4.47;;;3.63;;
42094;SDS011;27753;55.724;37.612;2022-07-17T11:03:28;6.05;;;2.50;;
42094;SDS011;27753;55.724;37.612;2022-07-17T11:05:54;4.30;;;2.03;;
42094;SDS011;27753;55.724;37.612;2022-07-17T11:08:30;3.13;;;1.20;;
42094;SDS011;27753;55.724;37.612;2022-07-17T11:10:56;5.23;;;2.20;;
42094;SDS011;27753;55.724;37.612;2022-07-17T11:13:22;2.05;;;1.25;;
42094;SDS011;27753;55.724;37.612;2022-07-17T11:15:48;1.60;;;0.90;;
42094;SDS011;27753;55.724;37.612;2022-07-17T11:18:15;2.00;;;1.10;;
42094;SDS011;27753;55.724;37.612;2022-07-17T11:20:56;2.65;;;1.17;;
42094;SDS011;27753;55.724;37.612;2022-07-17T11:23:24;2.40;;;1.17;;
42094;SDS011;27753;55.724;37.612;2022-07-17T11:26:05;2.92;;;1.70;;
42094;SDS011;27753;55.724;37.612;2022-07-17T11:30:59;2.97;;;1.95;;
42094;SDS011;27753;55.724;37.612;2022-07-17T11:35:52;2.67;;;1.20;;
42094;SDS011;27753;55.724;37.612;2022-07-17T11:38:28;1.77;;;1.25;;
42094;SDS011;27753;55.724;37.612;2022-07-17T11:40:55;5.18;;;2.03;;
42094;SDS011;27753;55.724;37.612;2022-07-17T11:43:21;2.73;;;1.47;;
42094;SDS011;27753;55.724;37.612;2022-07-17T11:45:47;3.85;;;1.75;;
42094;SDS011;27753;55.724;37.612;2022-07-17T11:48:13;2.13;;;1.20;;
42094;SDS011;27753;55.724;37.612;2022-07-17T11:50:40;3.15;;;1.55;;
42094;SDS011;27753;55.724;37.612;2022-07-17T11:53:06;3.15;;;1.20;;
42094;SDS011;27753;55.724;37.612;2022-07-17T11:55:38;1.55;;;1.08;;
42094;SDS011;27753;55.724;37.612;2022-07-17T11:58:05;2.05;;;1.58;;
42094;SDS011;27753;55.724;37.612;2022-07-17T12:00:32;3.67;;;1.35;;
42094;SDS011;27753;55.724;37.612;2022-07-17T12:03:04;7.05;;;1.65;;
42094;SDS011;27753;55.724;37.612;2022-07-17T12:05:32;3.03;;;2.35;;
42094;SDS011;27753;55.724;37.612;2022-07-17T12:07:59;3.53;;;2.28;;
42094;SDS011;27753;55.724;37.612;2022-07-17T12:10:26;6.57;;;1.52;;
42094;SDS011;27753;55.724;37.612;2022-07-17T12:15:45;2.53;;;1.00;;
42094;SDS011;27753;55.724;37.612;2022-07-17T12:18:22;4.30;;;2.15;;
42094;SDS011;27753;55.724;37.612;2022-07-17T12:21:01;2.38;;;1.60;;
42094;SDS011;27753;55.724;37.612;2022-07-17T12:26:08;5.63;;;1.95;;
42094;SDS011;27753;55.724;37.612;2022-07-17T12:28:36;4.03;;;1.60;;
42094;SDS011;27753;55.724;37.612;2022-07-17T12:31:02;4.60;;;1.60;;
42094;SDS011;27753;55.724;37.612;2022-07-17T12:33:29;3.83;;;1.42;;
42094;SDS011;27753;55.724;37.612;2022-07-17T12:35:54;2.75;;;2.00;;
42094;SDS011;27753;55.724;37.612;2022-07-17T12:38:20;6.05;;;3.42;;
42094;SDS011;27753;55.724;37.612;2022-07-17T12:40:46;4.32;;;1.70;;
42094;SDS011;27753;55.724;37.612;2022-07-17T12:43:12;1.90;;;1.13;;
42094;SDS011;27753;55.724;37.612;2022-07-17T12:45:38;2.78;;;1.67;;
42094;SDS011;27753;55.724;37.612;2022-07-17T12:48:04;4.00;;;2.10;;
42094;SDS011;27753;55.724;37.612;2022-07-17T12:50:30;6.72;;;3.80;;
42094;SDS011;27753;55.724;37.612;2022-07-17T12:52:56;4.05;;;2.15;;
42094;SDS011;27753;55.724;37.612;2022-07-17T12:55:22;3.33;;;2.08;;
42094;SDS011;27753;55.724;37.612;2022-07-17T12:57:48;2.65;;;1.77;;
42094;SDS011;27753;55.724;37.612;2022-07-17T13:00:14;2.15;;;1.10;;
42094;SDS011;27753;55.724;37.612;2022-07-17T13:02:40;2.53;;;1.65;;
42094;SDS011;27753;55.724;37.612;2022-07-17T13:05:06;3.83;;;1.40;;
42094;SDS011;27753;55.724;37.612;2022-07-17T13:07:32;2.85;;;1.42;;
42094;SDS011;27753;55.724;37.612;2022-07-17T13:09:58;4.10;;;1.80;;
42094;SDS011;27753;55.724;37.612;2022-07-17T13:12:24;9.23;;;3.85;;
42094;SDS011;27753;55.724;37.612;2022-07-17T13:14:50;3.58;;;2.25;;
42094;SDS011;27753;55.724;37.612;2022-07-17T13:17:16;3.83;;;2.97;;
42094;SDS011;27753;55.724;37.612;2022-07-17T13:19:42;2.78;;;2.00;;
42094;SDS011;27753;55.724;37.612;2022-07-17T13:22:08;4.32;;;1.58;;
42094;SDS011;27753;55.724;37.612;2022-07-17T13:24:34;4.45;;;2.08;;
42094;SDS011;27753;55.724;37.612;2022-07-17T13:26:59;6.05;;;2.20;;
42094;SDS011;27753;55.724;37.612;2022-07-17T13:29:25;6.28;;;3.20;;
42094;SDS011;27753;55.724;37.612;2022-07-17T13:31:52;4.90;;;1.90;;
42094;SDS011;27753;55.724;37.612;2022-07-17T13:36:45;3.10;;;2.20;;
42094;SDS011;27753;55.724;37.612;2022-07-17T13:39:10;7.95;;;2.40;;
42094;SDS011;27753;55.724;37.612;2022-07-17T13:41:37;2.78;;;1.55;;
42094;SDS011;27753;55.724;37.612;2022-07-17T13:44:04;3.25;;;1.80;;
42094;SDS011;27753;55.724;37.612;2022-07-17T13:46:30;3.80;;;1.95;;
42094;SDS011;27753;55.724;37.612;2022-07-17T13:48:57;2.90;;;1.77;;
42094;SDS011;27753;55.724;37.612;2022-07-17T13:51:23;3.40;;;1.70;;
42094;SDS011;27753;55.724;37.612;2022-07-17T13:53:49;7.32;;;2.40;;
42094;SDS011;27753;55.724;37.612;2022-07-17T13:56:14;4.72;;;2.60;;
42094;SDS011;27753;55.724;37.612;2022-07-17T13:58:41;2.55;;;1.88;;
42094;SDS011;27753;55.724;37.612;2022-07-17T14:01:06;3.20;;;2.08;;
42094;SDS011;27753;55.724;37.612;2022-07-17T14:03:32;6.00;;;1.95;;
42094;SDS011;27753;55.724;37.612;2022-07-17T14:05:58;5.15;;;1.52;;
42094;SDS011;27753;55.724;37.612;2022-07-17T14:08:24;4.78;;;1.90;;
42094;SDS011;27753;55.724;37.612;2022-07-17T14:10:50;3.03;;;1.45;;
42094;SDS011;27753;55.724;37.612;2022-07-17T14:13:16;4.57;;;1.58;;
42094;SDS011;27753;55.724;37.612;2022-07-17T14:15:42;5.68;;;1.83;;
42094;SDS011;27753;55.724;37.612;2022-07-17T14:18:08;7.75;;;3.17;;
42094;SDS011;27753;55.724;37.612;2022-07-17T14:20:34;8.05;;;2.40;;
42094;SDS011;27753;55.724;37.612;2022-07-17T14:22:59;2.80;;;2.10;;
42094;SDS011;27753;55.724;37.612;2022-07-17T14:25:25;2.58;;;1.80;;
42094;SDS011;27753;55.724;37.612;2022-07-17T14:27:51;4.05;;;1.55;;
42094;SDS011;27753;55.724;37.612;2022-07-17T14:30:17;2.25;;;1.77;;
42094;SDS011;27753;55.724;37.612;2022-07-17T14:32:43;3.90;;;1.55;;
42094;SDS011;27753;55.724;37.612;2022-07-17T14:35:09;6.07;;;1.77;;
42094;SDS011;27753;55.724;37.612;2022-07-17T14:37:35;6.70;;;2.38;;
42094;SDS011;27753;55.724;37.612;2022-07-17T14:40:01;4.38;;;1.88;;
42094;SDS011;27753;55.724;37.612;2022-07-17T14:42:27;4.30;;;3.47;;
42094;SDS011;27753;55.724;37.612;2022-07-17T14:44:53;2.78;;;1.90;;
42094;SDS011;27753;55.724;37.612;2022-07-17T14:47:19;3.67;;;1.92;;
42094;SDS011;27753;55.724;37.612;2022-07-17T14:49:45;2.88;;;2.40;;
42094;SDS011;27753;55.724;37.612;2022-07-17T14:52:10;3.42;;;2.08;;
42094;SDS011;27753;55.724;37.612;2022-07-17T14:54:36;2.58;;;1.70;;
42094;SDS011;27753;55.724;37.612;2022-07-17T14:57:02;3.65;;;1.90;;
42094;SDS011;27753;55.724;37.612;2022-07-17T14:59:28;3.42;;;1.58;;
42094;SDS011;27753;55.724;37.612;2022-07-17T15:01:54;3.65;;;1.70;;
42094;SDS011;27753;55.724;37.612;2022-07-17T15:04:20;4.40;;;2.10;;
42094;SDS011;27753;55.724;37.612;2022-07-17T15:06:45;5.97;;;2.13;;
42094;SDS011;27753;55.724;37.612;2022-07-17T15:09:11;2.83;;;1.50;;